createdAt,value
2017-08-08T00:00:03.587Z,3.90
2017-08-08T00:02:31.274Z,3.60
2017-08-08T00:04:58.915Z,3.97
2017-08-08T00:07:26.638Z,4.73
2017-08-08T00:09:54.282Z,4.40
2017-08-08T00:12:21.967Z,4.37
2017-08-08T00:14:50.378Z,4.23
2017-08-08T00:17:18.067Z,4.30
2017-08-08T00:19:45.715Z,4.37
2017-08-08T00:22:13.410Z,4.30
2017-08-08T00:24:41.823Z,4.13
2017-08-08T00:27:09.471Z,4.17
2017-08-08T00:29:37.159Z,4.50
2017-08-08T00:32:04.804Z,4.40
2017-08-08T00:34:32.499Z,4.33
2017-08-08T00:37:00.147Z,4.77
2017-08-08T00:39:27.832Z,3.90
2017-08-08T00:41:55.479Z,4.60
2017-08-08T00:44:23.168Z,4.20
2017-08-08T00:46:51.588Z,3.97
2017-08-08T00:49:19.282Z,4.43
2017-08-08T00:51:46.935Z,4.73
2017-08-08T00:54:14.622Z,3.90
2017-08-08T00:56:43.039Z,4.70
2017-08-08T00:59:10.736Z,4.23
2017-08-08T01:01:38.386Z,3.93
2017-08-08T01:04:06.072Z,4.80
2017-08-08T01:06:33.719Z,4.27
2017-08-08T01:09:01.407Z,3.93
2017-08-08T01:11:29.819Z,4.30
2017-08-08T01:13:57.519Z,4.47
2017-08-08T01:16:25.171Z,4.10
2017-08-08T01:18:52.855Z,4.40
2017-08-08T01:21:21.282Z,4.57
2017-08-08T01:23:48.972Z,4.57
2017-08-08T01:26:16.623Z,4.63
2017-08-08T01:28:48.287Z,4.47
2017-08-08T01:31:15.935Z,4.17
2017-08-08T01:33:43.587Z,4.20
2017-08-08T01:36:11.271Z,4.60
2017-08-08T01:38:38.911Z,4.57
2017-08-08T01:41:06.631Z,4.50
2017-08-08T01:43:34.291Z,3.80
2017-08-08T01:46:02.006Z,4.60
2017-08-08T01:48:29.666Z,4.80
2017-08-08T01:50:57.375Z,4.13
2017-08-08T01:53:25.038Z,4.30
2017-08-08T01:55:52.749Z,4.77
2017-08-08T01:58:20.404Z,4.33
2017-08-08T02:00:48.152Z,4.70
2017-08-08T02:03:15.801Z,5.20
2017-08-08T02:05:43.526Z,3.83
2017-08-08T02:08:11.170Z,4.73
2017-08-08T02:10:39.689Z,4.30
2017-08-08T02:13:07.392Z,4.20
2017-08-08T02:15:35.096Z,4.60
2017-08-08T02:18:02.780Z,4.30
2017-08-08T02:20:30.507Z,4.17
2017-08-08T02:22:58.179Z,4.67
2017-08-08T02:25:25.911Z,4.43
2017-08-08T02:27:53.579Z,4.23
2017-08-08T02:30:21.310Z,4.87
2017-08-08T02:32:48.958Z,5.40
2017-08-08T02:35:16.643Z,5.10
2017-08-08T02:37:45.050Z,4.53
2017-08-08T02:40:12.698Z,6.80
2017-08-08T02:42:40.380Z,5.67
2017-08-08T02:45:08.023Z,4.30
2017-08-08T02:47:35.710Z,4.77
2017-08-08T02:50:03.366Z,4.20
2017-08-08T02:52:31.055Z,4.43
2017-08-08T02:54:58.712Z,4.17
2017-08-08T02:57:26.416Z,3.53
2017-08-08T02:59:54.058Z,4.30
2017-08-08T03:02:22.514Z,4.10
2017-08-08T03:04:50.169Z,4.97
2017-08-08T03:07:17.854Z,4.10
2017-08-08T03:09:46.263Z,3.50
2017-08-08T03:12:13.951Z,4.60
2017-08-08T03:14:41.596Z,4.50
2017-08-08T03:17:09.284Z,4.17
2017-08-08T03:19:36.929Z,4.40
2017-08-08T03:22:04.618Z,4.50
2017-08-08T03:24:33.043Z,4.27
2017-08-08T03:27:00.740Z,4.07
2017-08-08T03:29:28.407Z,4.73
2017-08-08T03:31:56.102Z,5.17
2017-08-08T03:34:23.747Z,5.23
2017-08-08T03:36:52.215Z,4.20
2017-08-08T03:39:20.638Z,5.20
2017-08-08T03:41:48.335Z,4.83
2017-08-08T03:44:16.027Z,4.90
2017-08-08T03:46:44.447Z,4.47
2017-08-08T03:49:12.138Z,5.20
2017-08-08T03:51:39.790Z,4.93
2017-08-08T03:54:07.486Z,5.20
2017-08-08T03:56:35.144Z,4.20
2017-08-08T03:59:02.879Z,3.93
2017-08-08T04:01:30.535Z,5.70
2017-08-08T04:03:58.231Z,4.37
2017-08-08T04:06:25.879Z,4.27
2017-08-08T04:08:54.343Z,4.33
2017-08-08T04:11:22.768Z,4.70
2017-08-08T04:13:50.468Z,4.23
2017-08-08T04:16:18.122Z,5.00
2017-08-08T04:18:45.814Z,4.20
2017-08-08T04:21:14.226Z,4.43
2017-08-08T04:23:41.919Z,3.80
2017-08-08T04:26:09.560Z,4.50
2017-08-08T04:28:37.243Z,4.10
2017-08-08T04:31:04.886Z,3.83
2017-08-08T04:33:32.566Z,4.57
2017-08-08T04:36:00.214Z,4.07
2017-08-08T04:38:27.903Z,4.70
2017-08-08T04:40:56.315Z,4.93
2017-08-08T04:43:24.015Z,4.50
2017-08-08T04:45:51.668Z,4.03
2017-08-08T04:48:19.323Z,5.00
2017-08-08T04:50:47.006Z,4.60
2017-08-08T04:53:16.080Z,4.60
2017-08-08T04:55:43.767Z,4.03
2017-08-08T04:58:12.184Z,4.43
2017-08-08T05:00:39.875Z,4.30
2017-08-08T05:03:07.527Z,3.97
2017-08-08T05:05:35.220Z,4.23
2017-08-08T05:08:03.644Z,4.70
2017-08-08T05:10:31.338Z,5.10
2017-08-08T05:12:58.988Z,6.10
2017-08-08T05:15:26.675Z,5.33
2017-08-08T05:17:55.082Z,5.07
2017-08-08T05:20:22.774Z,4.40
2017-08-08T05:22:50.424Z,4.50
2017-08-08T05:25:18.111Z,4.53
2017-08-08T05:27:45.774Z,4.33
2017-08-08T05:30:13.466Z,4.70
2017-08-08T05:32:41.114Z,4.90
2017-08-08T05:35:09.565Z,4.70
2017-08-08T05:37:37.208Z,4.90
2017-08-08T05:40:04.896Z,5.10
2017-08-08T05:42:32.539Z,4.57
2017-08-08T05:45:00.223Z,4.07
2017-08-08T05:47:28.632Z,4.33
2017-08-08T05:49:56.335Z,4.63
2017-08-08T05:52:23.978Z,4.90
2017-08-08T05:54:51.624Z,4.60
2017-08-08T05:57:19.314Z,4.80
2017-08-08T05:59:46.960Z,4.03
2017-08-08T06:02:14.645Z,4.40
2017-08-08T06:04:42.291Z,4.43
2017-08-08T06:07:09.979Z,4.23
2017-08-08T06:09:38.390Z,3.77
2017-08-08T06:12:06.080Z,4.53
2017-08-08T06:14:33.718Z,4.07
2017-08-08T06:17:01.407Z,4.47
2017-08-08T06:19:29.051Z,4.37
2017-08-08T06:21:56.735Z,4.03
2017-08-08T06:24:24.387Z,4.17
2017-08-08T06:26:52.070Z,3.90
2017-08-08T06:29:20.484Z,4.03
2017-08-08T06:31:48.277Z,3.97
2017-08-08T06:34:15.920Z,3.90
2017-08-08T06:36:43.606Z,4.77
2017-08-08T06:39:11.254Z,3.87
2017-08-08T06:41:38.984Z,3.60
2017-08-08T06:44:06.626Z,4.33
2017-08-08T06:46:34.310Z,3.80
2017-08-08T06:49:01.967Z,4.50
2017-08-08T06:51:29.628Z,4.10
2017-08-08T06:53:57.319Z,4.27
2017-08-08T06:56:24.972Z,4.07
2017-08-08T06:58:52.666Z,4.10
2017-08-08T07:01:20.322Z,4.30
2017-08-08T07:03:48.783Z,4.17
2017-08-08T07:06:16.443Z,4.60
2017-08-08T07:08:44.135Z,4.47
2017-08-08T07:11:11.791Z,4.30
2017-08-08T07:13:41.164Z,3.93
2017-08-08T07:16:08.819Z,4.37
2017-08-08T07:18:36.512Z,3.70
2017-08-08T07:21:04.175Z,4.13
2017-08-08T07:23:31.867Z,4.47
2017-08-08T07:25:59.518Z,4.30
2017-08-08T07:28:27.222Z,4.03
2017-08-08T07:30:54.876Z,4.20
2017-08-08T07:33:22.603Z,4.60
2017-08-08T07:35:50.267Z,4.40
2017-08-08T07:38:17.959Z,4.30
2017-08-08T07:40:45.619Z,4.30
2017-08-08T07:43:13.315Z,4.43
2017-08-08T07:45:40.970Z,3.83
2017-08-08T07:48:08.666Z,4.20
2017-08-08T07:50:36.327Z,4.37
2017-08-08T07:53:04.039Z,3.43
2017-08-08T07:55:31.686Z,4.17
2017-08-08T07:57:59.335Z,3.60
2017-08-08T08:00:27.027Z,4.27
2017-08-08T08:02:55.442Z,4.13
2017-08-08T08:05:23.134Z,3.93
2017-08-08T08:07:50.790Z,4.33
2017-08-08T08:10:18.493Z,4.03
2017-08-08T08:12:46.144Z,3.63
2017-08-08T08:15:14.607Z,4.57
2017-08-08T08:17:43.023Z,3.83
2017-08-08T08:20:10.723Z,4.10
2017-08-08T08:22:38.382Z,4.00
2017-08-08T08:25:06.075Z,4.40
2017-08-08T08:27:34.491Z,3.73
2017-08-08T08:30:02.187Z,4.17
2017-08-08T08:32:29.847Z,4.13
2017-08-08T08:34:57.546Z,3.57
2017-08-08T08:37:25.198Z,3.87
2017-08-08T08:39:52.896Z,4.00
2017-08-08T08:42:20.553Z,4.10
2017-08-08T08:44:48.251Z,3.90
2017-08-08T08:47:15.903Z,3.53
2017-08-08T08:49:43.595Z,3.77
2017-08-08T08:52:11.243Z,4.60
2017-08-08T08:54:38.899Z,3.80
2017-08-08T08:57:06.596Z,4.07
2017-08-08T08:59:34.242Z,4.30
2017-08-08T09:02:01.944Z,4.50
2017-08-08T09:04:29.641Z,4.53
2017-08-08T09:06:57.329Z,4.30
2017-08-08T09:09:24.983Z,4.13
2017-08-08T09:11:52.679Z,5.00
2017-08-08T09:14:20.331Z,4.80
2017-08-08T09:16:48.031Z,4.40
2017-08-08T09:19:15.688Z,4.20
2017-08-08T09:21:43.382Z,4.37
2017-08-08T09:24:11.030Z,4.43
2017-08-08T09:26:38.729Z,5.27
2017-08-08T09:29:06.391Z,4.93
2017-08-08T09:31:34.083Z,4.70
2017-08-08T09:34:01.760Z,4.90
2017-08-08T09:36:29.458Z,4.90
2017-08-08T09:38:57.116Z,5.33
2017-08-08T09:41:24.821Z,5.70
2017-08-08T09:43:52.474Z,4.90
2017-08-08T09:46:20.175Z,5.20
2017-08-08T09:48:47.827Z,4.07
2017-08-08T09:51:15.519Z,4.60
2017-08-08T09:53:43.182Z,5.57
2017-08-08T09:56:10.878Z,4.80
2017-08-08T09:58:38.583Z,7.10
2017-08-08T10:01:06.239Z,5.73
2017-08-08T10:03:33.938Z,5.00
2017-08-08T10:06:01.586Z,5.40
2017-08-08T10:08:29.288Z,5.93
2017-08-08T10:10:57.715Z,5.60
2017-08-08T10:13:25.419Z,5.37
2017-08-08T10:15:53.859Z,5.80
2017-08-08T10:18:21.550Z,5.37
2017-08-08T10:20:49.207Z,5.50
2017-08-08T10:23:17.266Z,4.70
2017-08-08T10:25:44.906Z,4.53
2017-08-08T10:28:12.595Z,5.00
2017-08-08T10:30:40.243Z,4.73
2017-08-08T10:33:07.936Z,5.30
2017-08-08T10:35:35.580Z,4.93
2017-08-08T10:38:03.267Z,5.80
2017-08-08T10:40:30.917Z,5.17
2017-08-08T10:42:58.632Z,4.90
2017-08-08T10:45:26.278Z,5.60
2017-08-08T10:47:53.972Z,4.90
2017-08-08T10:50:21.623Z,5.23
2017-08-08T10:52:49.307Z,4.73
2017-08-08T10:55:17.715Z,5.70
2017-08-08T10:57:45.420Z,4.80
2017-08-08T11:00:13.069Z,5.50
2017-08-08T11:02:40.711Z,4.67
2017-08-08T11:05:08.408Z,4.70
2017-08-08T11:07:36.080Z,4.60
2017-08-08T11:10:04.541Z,4.07
2017-08-08T11:12:32.214Z,4.60
2017-08-08T11:15:00.672Z,4.47
2017-08-08T11:17:28.315Z,4.10
2017-08-08T11:19:56.007Z,4.33
2017-08-08T11:22:23.682Z,3.90
2017-08-08T11:24:51.371Z,4.37
2017-08-08T11:27:19.015Z,4.30
2017-08-08T11:29:46.708Z,4.40
2017-08-08T11:32:14.350Z,4.13
2017-08-08T11:34:42.036Z,4.33
2017-08-08T11:37:09.685Z,4.60
2017-08-08T11:39:37.414Z,4.90
2017-08-08T11:42:05.055Z,4.80
2017-08-08T11:44:32.743Z,4.43
2017-08-08T11:47:00.391Z,4.30
2017-08-08T11:49:28.076Z,4.13
2017-08-08T11:51:55.727Z,5.10
2017-08-08T11:54:23.423Z,5.60
2017-08-08T11:56:51.063Z,5.93
2017-08-08T11:59:18.752Z,5.30
2017-08-08T12:01:46.399Z,5.80
2017-08-08T12:04:14.093Z,4.60
2017-08-08T12:06:41.740Z,5.10
2017-08-08T12:09:10.219Z,5.47
2017-08-08T12:11:37.862Z,5.60
2017-08-08T12:14:05.511Z,6.40
2017-08-08T12:16:33.199Z,5.63
2017-08-08T12:19:01.628Z,5.00
2017-08-08T12:21:29.319Z,5.03
2017-08-08T12:23:56.972Z,4.63
2017-08-08T12:26:24.667Z,5.23
2017-08-08T12:28:53.083Z,4.27
2017-08-08T12:31:20.772Z,4.70
2017-08-08T12:33:48.417Z,4.93
2017-08-08T12:36:16.107Z,3.97
2017-08-08T12:38:43.755Z,4.47
2017-08-08T12:41:11.443Z,3.90
2017-08-08T12:43:39.876Z,4.13
2017-08-08T12:46:07.563Z,3.90
2017-08-08T12:48:35.210Z,4.17
2017-08-08T12:51:02.902Z,4.40
2017-08-08T12:53:30.551Z,3.83
2017-08-08T12:55:58.248Z,4.43
2017-08-08T12:58:25.892Z,4.30
2017-08-08T13:00:53.608Z,3.90
2017-08-08T13:03:21.251Z,5.00
2017-08-08T13:05:48.941Z,3.83
2017-08-08T13:08:16.587Z,4.33
2017-08-08T13:10:44.270Z,3.30
2017-08-08T13:13:12.687Z,3.43
2017-08-08T13:15:40.386Z,10.07
2017-08-08T13:18:08.032Z,5.60
2017-08-08T13:20:35.735Z,3.90
2017-08-08T13:23:04.147Z,4.67
2017-08-08T13:25:31.798Z,6.37
2017-08-08T13:27:59.495Z,3.83
2017-08-08T13:30:27.143Z,3.30
2017-08-08T13:32:54.839Z,4.47
2017-08-08T13:35:22.491Z,3.60
2017-08-08T13:37:50.206Z,4.73
2017-08-08T13:40:17.856Z,3.50
2017-08-08T13:42:45.552Z,3.50
2017-08-08T13:45:13.211Z,3.60
2017-08-08T13:47:40.912Z,4.00
2017-08-08T13:50:09.342Z,3.53
2017-08-08T13:52:37.036Z,3.90
2017-08-08T13:55:05.451Z,3.23
2017-08-08T13:57:33.148Z,4.43
2017-08-08T14:00:00.805Z,4.10
2017-08-08T14:02:28.510Z,3.10
2017-08-08T14:04:56.163Z,3.77
2017-08-08T14:07:24.623Z,3.50
2017-08-08T14:09:52.279Z,3.60
2017-08-08T14:12:23.997Z,3.33
2017-08-08T14:14:51.650Z,3.70
2017-08-08T14:17:19.347Z,3.70
2017-08-08T14:19:47.004Z,3.53
2017-08-08T14:22:14.658Z,4.07
2017-08-08T14:24:42.355Z,3.63
2017-08-08T14:27:10.010Z,3.80
2017-08-08T14:29:38.471Z,3.40
2017-08-08T14:32:06.120Z,4.10
2017-08-08T14:34:33.819Z,4.37
2017-08-08T14:37:01.475Z,4.10
2017-08-08T14:39:29.167Z,4.17
2017-08-08T14:41:56.814Z,4.53
2017-08-08T14:44:24.512Z,3.83
2017-08-08T14:46:52.159Z,4.70
2017-08-08T14:49:19.856Z,4.60
2017-08-08T14:51:47.506Z,4.80
2017-08-08T14:54:15.220Z,4.60
2017-08-08T14:56:42.870Z,4.40
2017-08-08T14:59:10.567Z,4.70
2017-08-08T15:01:38.219Z,5.50
2017-08-08T15:04:05.910Z,4.77
2017-08-08T15:06:33.563Z,4.60
2017-08-08T15:09:01.259Z,4.50
2017-08-08T15:11:28.914Z,3.80
2017-08-08T15:13:56.612Z,3.90
2017-08-08T15:16:24.259Z,3.83
2017-08-08T15:18:51.934Z,3.50
2017-08-08T15:21:19.818Z,3.60
2017-08-08T15:23:47.473Z,4.37
2017-08-08T15:26:15.176Z,3.60
2017-08-08T15:28:42.818Z,3.50
2017-08-08T15:31:10.507Z,3.30
2017-08-08T15:33:38.155Z,3.77
2017-08-08T15:36:05.850Z,3.40
2017-08-08T15:38:33.496Z,3.60
2017-08-08T15:41:01.183Z,3.00
2017-08-08T15:43:28.838Z,3.00
2017-08-08T15:45:56.523Z,3.50
2017-08-08T15:48:24.173Z,4.37
2017-08-08T15:50:51.866Z,4.97
2017-08-08T15:53:19.536Z,3.90
2017-08-08T15:55:47.233Z,4.37
2017-08-08T15:58:14.877Z,3.40
2017-08-08T16:00:42.567Z,3.10
2017-08-08T16:03:10.215Z,2.73
2017-08-08T16:05:37.913Z,3.27
2017-08-08T16:08:06.352Z,2.70
2017-08-08T16:10:34.802Z,2.60
2017-08-08T16:13:02.448Z,2.67
2017-08-08T16:15:30.090Z,2.20
2017-08-08T16:17:58.547Z,3.03
2017-08-08T16:20:26.190Z,2.43
2017-08-08T16:22:53.884Z,2.60
2017-08-08T16:25:21.531Z,2.70
2017-08-08T16:27:49.226Z,2.17
2017-08-08T16:30:16.883Z,2.50
2017-08-08T16:32:44.573Z,2.40
2017-08-08T16:35:12.222Z,2.33
2017-08-08T16:37:39.915Z,2.30
2017-08-08T16:40:07.563Z,2.10
2017-08-08T16:42:35.255Z,2.07
2017-08-08T16:45:02.915Z,2.37
2017-08-08T16:47:30.606Z,2.23
2017-08-08T16:49:58.259Z,1.67
2017-08-08T16:52:25.952Z,2.40
2017-08-08T16:54:53.596Z,1.80
2017-08-08T16:57:21.290Z,2.30
2017-08-08T16:59:48.947Z,2.07
2017-08-08T17:02:16.661Z,2.20
2017-08-08T17:04:44.316Z,2.07
2017-08-08T17:07:12.019Z,2.20
2017-08-08T17:09:39.701Z,2.10
2017-08-08T17:12:07.428Z,1.73
2017-08-08T17:14:35.088Z,1.93
2017-08-08T17:17:02.744Z,2.30
2017-08-08T17:19:30.439Z,1.97
2017-08-08T17:21:58.095Z,3.07
2017-08-08T17:24:25.795Z,3.10
2017-08-08T17:26:53.442Z,4.20
2017-08-08T17:29:21.901Z,2.03
2017-08-08T17:31:49.561Z,1.70
2017-08-08T17:34:17.263Z,1.73
2017-08-08T17:36:44.924Z,2.10
2017-08-08T17:39:12.623Z,2.40
2017-08-08T17:41:40.275Z,1.53
2017-08-08T17:44:07.971Z,1.60
2017-08-08T17:46:36.398Z,1.60
2017-08-08T17:49:04.104Z,1.73
2017-08-08T17:51:31.755Z,1.67
2017-08-08T17:53:59.459Z,1.80
2017-08-08T17:56:27.119Z,1.77
2017-08-08T17:58:54.822Z,1.40
2017-08-08T18:01:22.471Z,1.67
2017-08-08T18:03:50.163Z,1.73
2017-08-08T18:06:17.814Z,1.50
2017-08-08T18:08:46.278Z,2.33
2017-08-08T18:11:13.939Z,1.40
2017-08-08T18:13:41.591Z,2.63
2017-08-08T18:16:09.303Z,1.90
2017-08-08T18:18:36.962Z,2.00
2017-08-08T18:21:04.773Z,2.17
2017-08-08T18:23:32.437Z,1.60
2017-08-08T18:26:00.122Z,1.80
2017-08-08T18:28:27.780Z,1.90
2017-08-08T18:30:55.472Z,1.77
2017-08-08T18:33:23.123Z,1.97
2017-08-08T18:35:50.808Z,1.80
2017-08-08T18:38:18.456Z,1.70
2017-08-08T18:40:46.162Z,1.93
2017-08-08T18:43:13.806Z,1.87
2017-08-08T18:45:41.566Z,1.90
2017-08-08T18:48:09.215Z,2.00
2017-08-08T18:50:36.903Z,1.93
2017-08-08T18:53:04.980Z,2.03
2017-08-08T18:55:33.446Z,2.10
2017-08-08T18:58:01.096Z,2.03
2017-08-08T19:00:28.798Z,1.90
2017-08-08T19:02:56.447Z,1.97
2017-08-08T19:05:24.154Z,1.87
2017-08-08T19:07:51.820Z,2.00
2017-08-08T19:10:19.524Z,1.80
2017-08-08T19:12:47.176Z,2.27
2017-08-08T19:15:15.615Z,2.13
2017-08-08T19:17:43.318Z,2.00
2017-08-08T19:20:11.735Z,2.10
2017-08-08T19:22:39.444Z,1.90
2017-08-08T19:25:07.120Z,2.07
2017-08-08T19:27:35.583Z,2.20
2017-08-08T19:30:03.252Z,1.80
2017-08-08T19:32:31.712Z,2.40
2017-08-08T19:34:59.370Z,2.27
2017-08-08T19:37:27.067Z,1.77
2017-08-08T19:39:54.718Z,2.10
2017-08-08T19:42:22.415Z,2.10
2017-08-08T19:44:50.083Z,3.20
2017-08-08T19:47:17.818Z,2.27
2017-08-08T19:49:45.472Z,2.50
2017-08-08T19:52:13.178Z,2.07
2017-08-08T19:54:40.863Z,2.20
2017-08-08T19:57:08.568Z,2.40
2017-08-08T19:59:36.244Z,2.40
2017-08-08T20:02:03.950Z,2.50
2017-08-08T20:04:32.380Z,2.57
2017-08-08T20:07:00.087Z,2.37
2017-08-08T20:09:28.503Z,2.60
2017-08-08T20:11:56.211Z,2.43
2017-08-08T20:14:23.870Z,2.53
2017-08-08T20:16:51.579Z,2.50
2017-08-08T20:19:19.242Z,2.50
2017-08-08T20:21:46.936Z,2.37
2017-08-08T20:24:14.698Z,2.40
2017-08-08T20:26:42.353Z,2.63
2017-08-08T20:29:10.067Z,2.67
2017-08-08T20:31:37.714Z,2.77
2017-08-08T20:34:05.402Z,2.80
2017-08-08T20:36:33.059Z,2.77
2017-08-08T20:39:00.772Z,2.83
2017-08-08T20:41:28.428Z,2.93
2017-08-08T20:43:56.120Z,2.87
2017-08-08T20:46:23.763Z,3.23
2017-08-08T20:48:52.214Z,3.40
2017-08-08T20:51:19.854Z,3.20
2017-08-08T20:53:47.542Z,3.10
2017-08-08T20:56:15.187Z,3.30
2017-08-08T20:58:42.880Z,3.07
2017-08-08T21:01:11.285Z,3.37
2017-08-08T21:03:38.971Z,3.50
2017-08-08T21:06:06.632Z,2.80
2017-08-08T21:08:34.320Z,3.33
2017-08-08T21:11:01.966Z,3.13
2017-08-08T21:13:29.664Z,3.40
2017-08-08T21:15:57.311Z,3.30
2017-08-08T21:18:25.762Z,2.87
2017-08-08T21:20:53.416Z,3.17
2017-08-08T21:23:21.062Z,3.20
2017-08-08T21:25:48.755Z,3.53
2017-08-08T21:28:16.399Z,3.43
2017-08-08T21:30:44.087Z,2.93
2017-08-08T21:33:12.498Z,3.17
2017-08-08T21:35:40.187Z,3.20
2017-08-08T21:38:07.832Z,2.77
2017-08-08T21:40:35.523Z,3.50
2017-08-08T21:43:03.171Z,3.37
2017-08-08T21:45:30.859Z,3.17
2017-08-08T21:47:59.276Z,3.50
2017-08-08T21:50:26.965Z,3.93
2017-08-08T21:52:54.619Z,3.70
2017-08-08T21:55:22.310Z,3.93
2017-08-08T21:57:49.950Z,3.63
2017-08-08T22:00:17.649Z,4.10
2017-08-08T22:02:45.295Z,3.23
2017-08-08T22:05:13.755Z,4.10
2017-08-08T22:07:41.399Z,3.40
2017-08-08T22:10:09.086Z,2.90
2017-08-08T22:12:36.734Z,3.30
2017-08-08T22:15:04.430Z,3.90
2017-08-08T22:17:32.072Z,3.67
2017-08-08T22:20:00.547Z,3.70
2017-08-08T22:22:28.955Z,3.33
2017-08-08T22:24:56.605Z,3.70
2017-08-08T22:27:24.295Z,3.30
2017-08-08T22:29:51.952Z,3.17
2017-08-08T22:32:19.650Z,3.57
2017-08-08T22:34:47.308Z,3.93
2017-08-08T22:37:15.007Z,3.30
2017-08-08T22:39:42.663Z,3.47
2017-08-08T22:42:10.354Z,3.40
2017-08-08T22:44:38.015Z,3.50
2017-08-08T22:47:05.725Z,3.20
2017-08-08T22:49:34.151Z,3.43
2017-08-08T22:52:01.841Z,3.67
2017-08-08T22:54:29.491Z,3.80
2017-08-08T22:56:57.178Z,3.37
2017-08-08T22:59:25.589Z,3.20
2017-08-08T23:01:53.284Z,3.60
2017-08-08T23:04:20.935Z,3.20
2017-08-08T23:06:48.626Z,3.67
2017-08-08T23:09:16.297Z,3.23
2017-08-08T23:11:44.763Z,3.50
2017-08-08T23:14:12.415Z,3.20
2017-08-08T23:16:40.099Z,3.50
2017-08-08T23:19:08.519Z,3.40
2017-08-08T23:21:36.216Z,3.10
2017-08-08T23:24:03.871Z,3.20
2017-08-08T23:26:31.573Z,3.40
2017-08-08T23:28:59.273Z,3.50
2017-08-08T23:31:26.919Z,3.20
2017-08-08T23:33:54.610Z,3.50
2017-08-08T23:36:22.270Z,3.70
2017-08-08T23:38:49.966Z,3.27
2017-08-08T23:41:17.614Z,3.57
2017-08-08T23:43:45.306Z,4.00
2017-08-08T23:46:12.958Z,5.03
2017-08-08T23:48:40.654Z,3.83
2017-08-08T23:51:08.320Z,4.23
2017-08-08T23:53:36.023Z,3.73
2017-08-08T23:56:03.722Z,3.97
2017-08-08T23:58:31.418Z,3.30
